createdAt,value
2019-03-19T00:00:24.223Z,1006.53
2019-03-19T00:01:24.227Z,1006.51
2019-03-19T00:02:24.222Z,1006.52
2019-03-19T00:03:24.189Z,1006.53
2019-03-19T00:04:24.178Z,1006.53
2019-03-19T00:05:24.167Z,1006.55
2019-03-19T00:06:24.156Z,1006.53
2019-03-19T00:07:24.166Z,1006.57
2019-03-19T00:08:24.134Z,1006.61
2019-03-19T00:09:24.124Z,1006.59
2019-03-19T00:10:24.112Z,1006.58
2019-03-19T00:11:24.101Z,1006.60
2019-03-19T00:12:24.111Z,1006.65
2019-03-19T00:13:24.081Z,1006.66
2019-03-19T00:14:24.087Z,1006.72
2019-03-19T00:15:24.055Z,1006.73
2019-03-19T00:16:24.045Z,1006.78
2019-03-19T00:17:24.034Z,1006.79
2019-03-19T00:18:24.042Z,1006.80
2019-03-19T00:19:24.011Z,1006.77
2019-03-19T00:20:24.001Z,1006.76
2019-03-19T00:21:23.989Z,1006.76
2019-03-19T00:22:25.767Z,1006.74
2019-03-19T00:23:23.989Z,1006.75
2019-03-19T00:24:23.956Z,1006.75
2019-03-19T00:25:30.033Z,1006.77
2019-03-19T00:26:24.933Z,1006.77
2019-03-19T00:27:23.923Z,1006.80
2019-03-19T00:28:23.932Z,1006.79
2019-03-19T00:29:23.900Z,1006.74
2019-03-19T00:30:23.890Z,1006.72
2019-03-19T00:31:23.878Z,1006.74
2019-03-19T00:32:23.866Z,1006.72
2019-03-19T00:33:23.877Z,1006.75
2019-03-19T00:34:23.845Z,1006.78
2019-03-19T00:35:23.832Z,1006.78
2019-03-19T00:36:23.822Z,1006.76
2019-03-19T00:37:23.810Z,1006.79
2019-03-19T00:38:23.819Z,1006.78
2019-03-19T00:39:23.788Z,1006.76
2019-03-19T00:40:23.777Z,1006.77
2019-03-19T00:41:23.766Z,1006.73
2019-03-19T00:42:23.755Z,1006.75
2019-03-19T00:43:23.765Z,1006.78
2019-03-19T00:44:23.736Z,1006.81
2019-03-19T00:45:23.723Z,1006.77
2019-03-19T00:46:23.718Z,1006.78
2019-03-19T00:47:23.699Z,1006.75
2019-03-19T00:48:23.709Z,1006.73
2019-03-19T00:49:23.676Z,1006.70
2019-03-19T00:50:23.666Z,1006.66
2019-03-19T00:51:23.655Z,1006.64
2019-03-19T00:52:23.643Z,1006.70
2019-03-19T00:53:23.653Z,1006.69
2019-03-19T00:54:23.622Z,1006.70
2019-03-19T00:55:23.609Z,1006.75
2019-03-19T00:56:23.598Z,1006.76
2019-03-19T00:57:23.588Z,1006.77
2019-03-19T00:58:23.603Z,1006.79
2019-03-19T00:59:23.565Z,1006.80
2019-03-19T01:00:23.555Z,1006.84
2019-03-19T01:01:23.543Z,1006.83
2019-03-19T01:02:23.532Z,1006.83
2019-03-19T01:03:23.542Z,1006.82
2019-03-19T01:04:23.511Z,1006.82
2019-03-19T01:05:23.498Z,1006.84
2019-03-19T01:06:23.488Z,1006.76
2019-03-19T01:07:23.477Z,1006.79
2019-03-19T01:08:23.491Z,1006.77
2019-03-19T01:09:23.453Z,1006.76
2019-03-19T01:10:23.443Z,1006.77
2019-03-19T01:11:23.431Z,1006.78
2019-03-19T01:12:23.421Z,1006.79
2019-03-19T01:13:23.410Z,1006.86
2019-03-19T01:14:23.418Z,1006.86
2019-03-19T01:15:23.390Z,1006.88
2019-03-19T01:16:23.380Z,1006.89
2019-03-19T01:17:23.368Z,1006.93
2019-03-19T01:18:23.353Z,1006.90
2019-03-19T01:19:23.364Z,1006.93
2019-03-19T01:20:23.331Z,1006.94
2019-03-19T01:21:23.320Z,1006.93
2019-03-19T01:22:23.309Z,1006.93
2019-03-19T01:23:23.297Z,1006.95
2019-03-19T01:24:23.308Z,1006.99
2019-03-19T01:25:23.276Z,1006.94
2019-03-19T01:26:23.269Z,1006.94
2019-03-19T01:27:23.253Z,1006.92
2019-03-19T01:28:23.243Z,1006.93
2019-03-19T01:29:23.252Z,1006.95
2019-03-19T01:30:23.219Z,1007.03
2019-03-19T01:31:23.210Z,1006.98
2019-03-19T01:32:23.197Z,1007.00
2019-03-19T01:33:23.187Z,1007.02
2019-03-19T01:34:23.196Z,1007.00
2019-03-19T01:35:23.164Z,1006.97
2019-03-19T01:36:23.152Z,1006.94
2019-03-19T01:37:23.142Z,1006.98
2019-03-19T01:38:23.131Z,1006.90
2019-03-19T01:39:23.140Z,1006.89
2019-03-19T01:40:23.108Z,1006.85
2019-03-19T01:41:23.098Z,1006.85
2019-03-19T01:42:23.086Z,1006.88
2019-03-19T01:43:23.075Z,1006.95
2019-03-19T01:44:23.084Z,1006.96
2019-03-19T01:45:23.054Z,1006.95
2019-03-19T01:46:23.041Z,1006.98
2019-03-19T01:47:23.030Z,1006.97
2019-03-19T01:48:23.019Z,1006.97
2019-03-19T01:49:23.028Z,1006.94
2019-03-19T01:50:23.000Z,1006.96
2019-03-19T01:51:22.985Z,1006.95
2019-03-19T01:52:22.974Z,1007.00
2019-03-19T01:53:22.964Z,1006.99
2019-03-19T01:54:22.972Z,1007.03
2019-03-19T01:55:25.441Z,1007.08
2019-03-19T01:56:22.929Z,1007.06
2019-03-19T01:57:22.919Z,1007.13
2019-03-19T01:58:22.907Z,1007.14
2019-03-19T01:59:22.916Z,1007.06
2019-03-19T02:00:22.889Z,1007.05
2019-03-19T02:01:22.874Z,1007.02
2019-03-19T02:02:22.865Z,1007.03
2019-03-19T02:03:22.851Z,1006.97
2019-03-19T02:04:22.861Z,1006.96
2019-03-19T02:05:22.830Z,1006.97
2019-03-19T02:06:22.817Z,1006.96
2019-03-19T02:07:22.805Z,1007.00
2019-03-19T02:08:22.816Z,1006.97
2019-03-19T02:09:22.784Z,1007.01
2019-03-19T02:10:22.794Z,1007.02
2019-03-19T02:11:22.760Z,1007.06
2019-03-19T02:12:22.753Z,1007.04
2019-03-19T02:13:22.741Z,1007.07
2019-03-19T02:14:22.728Z,1007.06
2019-03-19T02:15:22.738Z,1007.11
2019-03-19T02:16:22.706Z,1007.05
2019-03-19T02:17:22.696Z,1007.07
2019-03-19T02:18:22.685Z,1007.05
2019-03-19T02:19:22.675Z,1007.04
2019-03-19T02:20:22.683Z,1007.08
2019-03-19T02:21:22.650Z,1007.05
2019-03-19T02:22:22.638Z,1007.06
2019-03-19T02:23:22.629Z,1007.06
2019-03-19T02:24:22.617Z,1007.09
2019-03-19T02:25:22.628Z,1007.08
2019-03-19T02:26:22.594Z,1007.05
2019-03-19T02:27:22.583Z,1007.12
2019-03-19T02:28:22.573Z,1007.13
2019-03-19T02:29:22.568Z,1007.15
2019-03-19T02:30:22.572Z,1007.17
2019-03-19T02:31:22.539Z,1007.19
2019-03-19T02:32:22.530Z,1007.18
2019-03-19T02:33:22.516Z,1007.18
2019-03-19T02:34:22.506Z,1007.17
2019-03-19T02:35:22.517Z,1007.17
2019-03-19T02:36:22.493Z,1007.20
2019-03-19T02:37:22.473Z,1007.17
2019-03-19T02:38:22.460Z,1007.22
2019-03-19T02:39:22.451Z,1007.25
2019-03-19T02:40:22.459Z,1007.29
2019-03-19T02:41:22.428Z,1007.29
2019-03-19T02:42:22.415Z,1007.35
2019-03-19T02:43:22.896Z,1007.36
2019-03-19T02:44:22.393Z,1007.38
2019-03-19T02:45:22.404Z,1007.35
2019-03-19T02:46:22.373Z,1007.29
2019-03-19T02:47:22.360Z,1007.29
2019-03-19T02:48:22.350Z,1007.33
2019-03-19T02:49:22.337Z,1007.32
2019-03-19T02:50:22.350Z,1007.32
2019-03-19T02:51:22.320Z,1007.34
2019-03-19T02:52:22.310Z,1007.37
2019-03-19T02:53:22.293Z,1007.34
2019-03-19T02:54:22.282Z,1007.38
2019-03-19T02:55:22.330Z,1007.43
2019-03-19T02:56:32.725Z,1007.41
2019-03-19T02:57:23.248Z,1007.45
2019-03-19T02:58:22.236Z,1007.42
2019-03-19T02:59:22.227Z,1007.40
2019-03-19T03:00:22.215Z,1007.40
2019-03-19T03:01:22.224Z,1007.35
2019-03-19T03:02:22.196Z,1007.37
2019-03-19T03:03:22.180Z,1007.41
2019-03-19T03:04:22.172Z,1007.43
2019-03-19T03:05:22.171Z,1007.45
2019-03-19T03:06:22.168Z,1007.49
2019-03-19T03:07:22.139Z,1007.54
2019-03-19T03:08:22.131Z,1007.56
2019-03-19T03:09:22.113Z,1007.58
2019-03-19T03:10:22.102Z,1007.63
2019-03-19T03:11:22.115Z,1007.64
2019-03-19T03:12:22.080Z,1007.60
2019-03-19T03:13:22.069Z,1007.61
2019-03-19T03:14:22.057Z,1007.61
2019-03-19T03:15:22.046Z,1007.57
2019-03-19T03:16:22.056Z,1007.58
2019-03-19T03:17:22.025Z,1007.60
2019-03-19T03:18:22.013Z,1007.58
2019-03-19T03:19:22.004Z,1007.60
2019-03-19T03:20:21.996Z,1007.58
2019-03-19T03:21:22.001Z,1007.62
2019-03-19T03:22:21.968Z,1007.63
2019-03-19T03:23:21.957Z,1007.70
2019-03-19T03:24:21.947Z,1007.70
2019-03-19T03:25:21.942Z,1007.76
2019-03-19T03:26:21.944Z,1007.77
2019-03-19T03:27:21.914Z,1007.78
2019-03-19T03:28:21.902Z,1007.84
2019-03-19T03:29:21.891Z,1007.88
2019-03-19T03:30:21.933Z,1007.90
2019-03-19T03:31:21.890Z,1007.91
2019-03-19T03:32:21.858Z,1007.89
2019-03-19T03:33:21.869Z,1007.88
2019-03-19T03:34:21.836Z,1007.92
2019-03-19T03:35:21.829Z,1007.87
2019-03-19T03:36:21.834Z,1007.89
2019-03-19T03:37:21.800Z,1007.91
2019-03-19T03:38:21.788Z,1007.91
2019-03-19T03:39:21.783Z,1007.93
2019-03-19T03:40:21.767Z,1007.99
2019-03-19T03:41:21.778Z,1007.97
2019-03-19T03:42:21.748Z,1008.02
2019-03-19T03:43:21.733Z,1008.00
2019-03-19T03:44:21.722Z,1007.96
2019-03-19T03:45:21.710Z,1008.00
2019-03-19T03:46:21.729Z,1007.97
2019-03-19T03:47:21.692Z,1007.98
2019-03-19T03:48:21.678Z,1007.97
2019-03-19T03:49:21.665Z,1007.99
2019-03-19T03:50:21.659Z,1008.02
2019-03-19T03:51:21.666Z,1008.00
2019-03-19T03:52:21.638Z,1008.01
2019-03-19T03:53:21.622Z,1008.00
2019-03-19T03:54:21.614Z,1007.98
2019-03-19T03:55:21.624Z,1008.03
2019-03-19T03:56:21.589Z,1007.98
2019-03-19T03:57:21.600Z,1008.00
2019-03-19T03:58:21.567Z,1008.02
2019-03-19T03:59:21.554Z,1008.07
2019-03-19T04:00:21.544Z,1008.08
2019-03-19T04:01:21.540Z,1008.07
2019-03-19T04:02:21.543Z,1008.11
2019-03-19T04:03:21.521Z,1008.12
2019-03-19T04:04:21.507Z,1008.08
2019-03-19T04:05:21.490Z,1008.06
2019-03-19T04:06:21.481Z,1008.12
2019-03-19T04:07:21.488Z,1008.10
2019-03-19T04:08:21.460Z,1008.12
2019-03-19T04:09:21.442Z,1008.10
2019-03-19T04:10:21.434Z,1008.13
2019-03-19T04:11:21.444Z,1008.12
2019-03-19T04:12:21.434Z,1008.18
2019-03-19T04:13:21.424Z,1008.18
2019-03-19T04:14:21.388Z,1008.20
2019-03-19T04:15:21.380Z,1008.16
2019-03-19T04:16:21.365Z,1008.22
2019-03-19T04:17:21.374Z,1008.24
2019-03-19T04:18:21.343Z,1008.25
2019-03-19T04:19:21.332Z,1008.28
2019-03-19T04:20:21.322Z,1008.24
2019-03-19T04:21:21.311Z,1008.24
2019-03-19T04:22:21.322Z,1008.25
2019-03-19T04:23:21.290Z,1008.30
2019-03-19T04:24:21.292Z,1008.32
2019-03-19T04:25:21.273Z,1008.33
2019-03-19T04:26:21.255Z,1008.35
2019-03-19T04:27:21.263Z,1008.36
2019-03-19T04:28:21.234Z,1008.35
2019-03-19T04:29:21.221Z,1008.34
2019-03-19T04:30:21.210Z,1008.35
2019-03-19T04:31:21.199Z,1008.35
2019-03-19T04:32:21.210Z,1008.29
2019-03-19T04:33:21.186Z,1008.33
2019-03-19T04:34:21.165Z,1008.32
2019-03-19T04:35:21.154Z,1008.31
2019-03-19T04:36:21.143Z,1008.28
2019-03-19T04:37:21.154Z,1008.26
2019-03-19T04:38:21.122Z,1008.29
2019-03-19T04:39:21.108Z,1008.27
2019-03-19T04:40:21.099Z,1008.32
2019-03-19T04:41:21.086Z,1008.28
2019-03-19T04:42:21.096Z,1008.28
2019-03-19T04:43:21.064Z,1008.27
2019-03-19T04:44:21.053Z,1008.31
2019-03-19T04:45:21.042Z,1008.29
2019-03-19T04:46:21.032Z,1008.25
2019-03-19T04:47:21.040Z,1008.25
2019-03-19T04:48:21.030Z,1008.28
2019-03-19T04:49:20.998Z,1008.26
2019-03-19T04:50:20.986Z,1008.27
2019-03-19T04:51:20.975Z,1008.31
2019-03-19T04:52:20.965Z,1008.31
2019-03-19T04:53:20.974Z,1008.33
2019-03-19T04:54:20.942Z,1008.33
2019-03-19T04:55:20.931Z,1008.30
2019-03-19T04:56:20.919Z,1008.32
2019-03-19T04:57:26.857Z,1008.30
2019-03-19T04:58:21.917Z,1008.30
2019-03-19T04:59:20.886Z,1008.28
2019-03-19T05:00:20.875Z,1008.28
2019-03-19T05:01:20.863Z,1008.25
2019-03-19T05:02:20.852Z,1008.24
2019-03-19T05:03:20.862Z,1008.27
2019-03-19T05:04:20.832Z,1008.30
2019-03-19T05:05:20.818Z,1008.30
2019-03-19T05:06:20.806Z,1008.35
2019-03-19T05:07:20.796Z,1008.39
2019-03-19T05:08:20.806Z,1008.41
2019-03-19T05:09:20.777Z,1008.44
2019-03-19T05:10:20.762Z,1008.43
2019-03-19T05:11:20.750Z,1008.42
2019-03-19T05:12:20.740Z,1008.41
2019-03-19T05:13:20.751Z,1008.42
2019-03-19T05:14:20.719Z,1008.41
2019-03-19T05:15:20.706Z,1008.44
2019-03-19T05:16:20.695Z,1008.41
2019-03-19T05:17:20.684Z,1008.44
2019-03-19T05:18:20.693Z,1008.42
2019-03-19T05:19:20.661Z,1008.38
2019-03-19T05:20:20.650Z,1008.39
2019-03-19T05:21:20.639Z,1008.37
2019-03-19T05:22:20.627Z,1008.40
2019-03-19T05:23:20.637Z,1008.45
2019-03-19T05:24:20.604Z,1008.42
2019-03-19T05:25:20.593Z,1008.46
2019-03-19T05:26:20.581Z,1008.48
2019-03-19T05:27:20.570Z,1008.52
2019-03-19T05:28:20.580Z,1008.49
2019-03-19T05:29:20.549Z,1008.54
2019-03-19T05:30:20.616Z,1008.54
2019-03-19T05:31:20.525Z,1008.55
2019-03-19T05:32:20.514Z,1008.59
2019-03-19T05:33:20.528Z,1008.59
2019-03-19T05:34:20.493Z,1008.59
2019-03-19T05:35:20.488Z,1008.54
2019-03-19T05:36:20.470Z,1008.61
2019-03-19T05:37:20.458Z,1008.65
2019-03-19T05:38:20.471Z,1008.58
2019-03-19T05:39:20.435Z,1008.62
2019-03-19T05:40:20.426Z,1008.63
2019-03-19T05:41:20.413Z,1008.63
2019-03-19T05:42:20.401Z,1008.72
2019-03-19T05:43:20.411Z,1008.70
2019-03-19T05:44:20.379Z,1008.71
2019-03-19T05:45:20.367Z,1008.72
2019-03-19T05:46:20.356Z,1008.72
2019-03-19T05:47:20.344Z,1008.68
2019-03-19T05:48:20.354Z,1008.70
2019-03-19T05:49:20.322Z,1008.72
2019-03-19T05:50:20.333Z,1008.62
2019-03-19T05:51:20.299Z,1008.69
2019-03-19T05:52:20.289Z,1008.68
2019-03-19T05:53:20.280Z,1008.67
2019-03-19T05:54:20.290Z,1008.64
2019-03-19T05:55:20.254Z,1008.73
2019-03-19T05:56:20.244Z,1008.74
2019-03-19T05:57:20.233Z,1008.73
2019-03-19T05:58:20.221Z,1008.72
2019-03-19T05:59:20.231Z,1008.81
2019-03-19T06:00:20.198Z,1008.88
2019-03-19T06:01:20.188Z,1008.88
2019-03-19T06:02:20.176Z,1008.89
2019-03-19T06:03:20.165Z,1008.89
2019-03-19T06:04:20.174Z,1008.89
2019-03-19T06:05:21.337Z,1008.89
2019-03-19T06:06:20.132Z,1008.89
2019-03-19T06:07:20.122Z,1008.86
2019-03-19T06:08:20.109Z,1008.85
2019-03-19T06:09:20.129Z,1008.81
2019-03-19T06:10:20.089Z,1008.82
2019-03-19T06:11:20.074Z,1008.83
2019-03-19T06:12:20.064Z,1008.83
2019-03-19T06:13:20.052Z,1008.82
2019-03-19T06:14:20.062Z,1008.90
2019-03-19T06:15:20.030Z,1008.88
2019-03-19T06:16:20.019Z,1008.90
2019-03-19T06:17:20.007Z,1008.89
2019-03-19T06:18:19.995Z,1008.87
2019-03-19T06:19:20.007Z,1008.86
2019-03-19T06:20:19.973Z,1008.81
2019-03-19T06:21:19.961Z,1008.84
2019-03-19T06:22:19.950Z,1008.79
2019-03-19T06:23:19.939Z,1008.84
2019-03-19T06:24:19.949Z,1008.87
2019-03-19T06:25:19.917Z,1008.90
2019-03-19T06:26:19.907Z,1008.96
2019-03-19T06:27:19.894Z,1009.01
2019-03-19T06:28:19.882Z,1009.09
2019-03-19T06:29:19.893Z,1009.13
2019-03-19T06:30:19.859Z,1009.11
2019-03-19T06:31:19.852Z,1009.11
2019-03-19T06:32:19.838Z,1009.13
2019-03-19T06:33:19.827Z,1009.16
2019-03-19T06:34:19.836Z,1009.12
2019-03-19T06:35:19.804Z,1009.13
2019-03-19T06:36:19.793Z,1009.10
2019-03-19T06:37:19.780Z,1009.06
2019-03-19T06:38:19.770Z,1009.06
2019-03-19T06:39:19.779Z,1009.09
2019-03-19T06:40:19.746Z,1009.12
2019-03-19T06:41:19.743Z,1009.13
2019-03-19T06:42:19.735Z,1009.16
2019-03-19T06:43:19.713Z,1009.16
2019-03-19T06:44:19.723Z,1009.18
2019-03-19T06:45:19.689Z,1009.18
2019-03-19T06:46:19.703Z,1009.21
2019-03-19T06:47:19.667Z,1009.22
2019-03-19T06:48:19.659Z,1009.27
2019-03-19T06:49:19.645Z,1009.28
2019-03-19T06:50:19.655Z,1009.32
2019-03-19T06:51:19.623Z,1009.27
2019-03-19T06:52:19.612Z,1009.31
2019-03-19T06:53:19.601Z,1009.31
2019-03-19T06:54:19.589Z,1009.32
2019-03-19T06:55:19.610Z,1009.35
2019-03-19T06:56:19.566Z,1009.39
2019-03-19T06:57:19.555Z,1009.37
2019-03-19T06:58:19.542Z,1009.38
2019-03-19T06:59:19.532Z,1009.44
2019-03-19T07:00:19.544Z,1009.47
2019-03-19T07:01:19.510Z,1009.47
2019-03-19T07:02:19.500Z,1009.54
2019-03-19T07:03:19.487Z,1009.55
2019-03-19T07:04:19.478Z,1009.57
2019-03-19T07:05:19.488Z,1009.60
2019-03-19T07:06:19.454Z,1009.61
2019-03-19T07:07:19.444Z,1009.63
2019-03-19T07:08:19.433Z,1009.62
2019-03-19T07:09:19.423Z,1009.67
2019-03-19T07:10:19.430Z,1009.65
2019-03-19T07:11:19.398Z,1009.71
2019-03-19T07:12:19.388Z,1009.70
2019-03-19T07:13:19.377Z,1009.68
2019-03-19T07:14:19.368Z,1009.69
2019-03-19T07:15:19.377Z,1009.70
2019-03-19T07:16:19.342Z,1009.69
2019-03-19T07:17:19.331Z,1009.71
2019-03-19T07:18:19.320Z,1009.72
2019-03-19T07:19:19.329Z,1009.74
2019-03-19T07:20:19.318Z,1009.76
2019-03-19T07:21:19.287Z,1009.75
2019-03-19T07:22:19.277Z,1009.73
2019-03-19T07:23:19.265Z,1009.71
2019-03-19T07:24:19.253Z,1009.73
2019-03-19T07:25:19.264Z,1009.75
2019-03-19T07:26:19.231Z,1009.74
2019-03-19T07:27:19.220Z,1009.80
2019-03-19T07:28:22.368Z,1009.80
2019-03-19T07:29:19.197Z,1009.81
2019-03-19T07:30:19.215Z,1009.87
2019-03-19T07:31:30.161Z,1009.82
2019-03-19T07:32:20.162Z,1009.84
2019-03-19T07:33:19.152Z,1009.82
2019-03-19T07:34:19.141Z,1009.84
2019-03-19T07:35:19.156Z,1009.80
2019-03-19T07:36:19.120Z,1009.78
2019-03-19T07:37:19.108Z,1009.83
2019-03-19T07:38:19.098Z,1009.79
2019-03-19T07:39:19.088Z,1009.73
2019-03-19T07:40:19.114Z,1009.73
2019-03-19T07:41:19.065Z,1009.75
2019-03-19T07:42:19.057Z,1009.77
2019-03-19T07:43:19.045Z,1009.81
2019-03-19T07:44:19.030Z,1009.77
2019-03-19T07:45:19.019Z,1009.79
2019-03-19T07:46:19.030Z,1009.85
2019-03-19T07:47:18.998Z,1009.87
2019-03-19T07:48:18.986Z,1009.92
2019-03-19T07:49:18.974Z,1009.91
2019-03-19T07:50:18.963Z,1009.91
2019-03-19T07:51:18.975Z,1009.91
2019-03-19T07:52:18.940Z,1009.90
2019-03-19T07:53:18.931Z,1009.94
2019-03-19T07:54:18.919Z,1009.90
2019-03-19T07:55:18.909Z,1009.93
2019-03-19T07:56:18.918Z,1009.94
2019-03-19T07:57:18.886Z,1009.89
2019-03-19T07:58:18.874Z,1009.85
2019-03-19T07:59:18.863Z,1009.85
2019-03-19T08:00:18.851Z,1009.87
2019-03-19T08:01:18.902Z,1009.90
2019-03-19T08:02:18.830Z,1009.88
2019-03-19T08:03:18.820Z,1009.89
2019-03-19T08:04:18.809Z,1009.92
2019-03-19T08:05:18.800Z,1009.94
2019-03-19T08:06:18.806Z,1009.95
2019-03-19T08:07:18.774Z,1009.90
2019-03-19T08:08:18.764Z,1009.93
2019-03-19T08:09:18.820Z,1009.94
2019-03-19T08:10:18.744Z,1009.97
2019-03-19T08:11:18.751Z,1009.96
2019-03-19T08:12:18.718Z,1009.99
2019-03-19T08:13:18.708Z,1010.00
2019-03-19T08:14:18.696Z,1010.03
2019-03-19T08:15:18.686Z,1010.07
2019-03-19T08:16:27.080Z,1010.07
2019-03-19T08:17:19.682Z,1010.05
2019-03-19T08:18:18.652Z,1010.03
2019-03-19T08:19:18.640Z,1010.05
2019-03-19T08:20:18.630Z,1010.02
2019-03-19T08:21:18.639Z,1010.01
2019-03-19T08:22:18.609Z,1010.03
2019-03-19T08:23:18.596Z,1010.00
2019-03-19T08:24:18.586Z,1009.99
2019-03-19T08:25:18.573Z,1009.96
2019-03-19T08:26:18.583Z,1009.95
2019-03-19T08:27:18.553Z,1009.91
2019-03-19T08:28:18.539Z,1009.90
2019-03-19T08:29:18.532Z,1009.92
2019-03-19T08:30:18.519Z,1009.91
2019-03-19T08:31:18.592Z,1009.92
2019-03-19T08:32:18.497Z,1009.97
2019-03-19T08:33:18.489Z,1009.97
2019-03-19T08:34:18.474Z,1009.98
2019-03-19T08:35:18.463Z,1010.02
2019-03-19T08:36:18.450Z,1010.04
2019-03-19T08:37:18.461Z,1010.04
2019-03-19T08:38:18.462Z,1010.05
2019-03-19T08:39:18.417Z,1010.09
2019-03-19T08:40:18.409Z,1010.09
2019-03-19T08:41:18.397Z,1010.12
2019-03-19T08:42:18.404Z,1010.07
2019-03-19T08:43:20.318Z,1010.10
2019-03-19T08:44:27.434Z,1010.10
2019-03-19T08:45:19.348Z,1010.08
2019-03-19T08:46:18.338Z,1010.07
2019-03-19T08:47:18.350Z,1010.13
2019-03-19T08:48:18.316Z,1010.15
2019-03-19T08:49:18.305Z,1010.11
2019-03-19T08:50:18.304Z,1010.16
2019-03-19T08:51:18.332Z,1010.13
2019-03-19T08:52:18.292Z,1010.13
2019-03-19T08:53:18.260Z,1010.17
2019-03-19T08:54:18.249Z,1010.19
2019-03-19T08:55:18.248Z,1010.17
2019-03-19T08:56:18.227Z,1010.14
2019-03-19T08:57:18.251Z,1010.14
2019-03-19T08:58:18.206Z,1010.12
2019-03-19T08:59:18.202Z,1010.13
2019-03-19T09:00:18.185Z,1010.13
2019-03-19T09:01:18.171Z,1010.16
2019-03-19T09:02:18.182Z,1010.15
2019-03-19T09:03:18.149Z,1010.14
2019-03-19T09:04:18.136Z,1010.16
2019-03-19T09:05:18.125Z,1010.11
2019-03-19T09:06:18.114Z,1010.16
2019-03-19T09:07:20.075Z,1010.18
2019-03-19T09:08:18.091Z,1010.14
2019-03-19T09:09:18.081Z,1010.17
2019-03-19T09:10:18.084Z,1010.19
2019-03-19T09:11:18.058Z,1010.16
2019-03-19T09:12:18.069Z,1010.20
2019-03-19T09:13:18.036Z,1010.16
2019-03-19T09:14:18.024Z,1010.18
2019-03-19T09:15:18.019Z,1010.17
2019-03-19T09:16:18.001Z,1010.20
2019-03-19T09:17:18.011Z,1010.23
2019-03-19T09:18:17.978Z,1010.20
2019-03-19T09:19:17.967Z,1010.25
2019-03-19T09:20:17.957Z,1010.27
2019-03-19T09:21:17.945Z,1010.29
2019-03-19T09:22:17.956Z,1010.26
2019-03-19T09:23:17.923Z,1010.29
2019-03-19T09:24:17.912Z,1010.31
2019-03-19T09:25:17.901Z,1010.31
2019-03-19T09:26:17.889Z,1010.34
2019-03-19T09:27:17.927Z,1010.36
2019-03-19T09:28:17.867Z,1010.38
2019-03-19T09:29:17.934Z,1010.45
2019-03-19T09:30:17.845Z,1010.44
2019-03-19T09:31:17.833Z,1010.47
2019-03-19T09:32:17.905Z,1010.46
2019-03-19T09:33:17.832Z,1010.47
2019-03-19T09:34:17.800Z,1010.50
2019-03-19T09:35:17.791Z,1010.49
2019-03-19T09:36:17.778Z,1010.47
2019-03-19T09:37:17.767Z,1010.56
2019-03-19T09:38:17.988Z,1010.58
2019-03-19T09:39:17.743Z,1010.63
2019-03-19T09:40:17.732Z,1010.62
2019-03-19T09:41:17.723Z,1010.58
2019-03-19T09:42:17.728Z,1010.57
2019-03-19T09:43:17.719Z,1010.58
2019-03-19T09:44:17.687Z,1010.56
2019-03-19T09:45:17.677Z,1010.57
2019-03-19T09:46:18.583Z,1010.56
2019-03-19T09:47:17.653Z,1010.63
2019-03-19T09:48:17.663Z,1010.63
2019-03-19T09:49:17.632Z,1010.62
2019-03-19T09:50:17.619Z,1010.57
2019-03-19T09:51:17.609Z,1010.56
2019-03-19T09:52:17.598Z,1010.61
2019-03-19T09:53:18.806Z,1010.60
2019-03-19T09:54:17.581Z,1010.58
2019-03-19T09:55:17.569Z,1010.58
2019-03-19T09:56:17.553Z,1010.59
2019-03-19T09:57:17.542Z,1010.61
2019-03-19T09:58:17.552Z,1010.61
2019-03-19T09:59:26.828Z,1010.60
2019-03-19T10:00:18.516Z,1010.63
2019-03-19T10:01:17.498Z,1010.61
2019-03-19T10:02:17.487Z,1010.59
2019-03-19T10:03:17.502Z,1010.65
2019-03-19T10:04:17.465Z,1010.66
2019-03-19T10:05:17.453Z,1010.62
2019-03-19T10:06:17.445Z,1010.64
2019-03-19T10:07:17.432Z,1010.64
2019-03-19T10:08:17.440Z,1010.65
2019-03-19T10:09:17.407Z,1010.67
2019-03-19T10:10:17.397Z,1010.69
2019-03-19T10:11:17.389Z,1010.71
2019-03-19T10:12:17.375Z,1010.72
2019-03-19T10:13:17.386Z,1010.70
2019-03-19T10:14:17.352Z,1010.76
2019-03-19T10:15:17.342Z,1010.74
2019-03-19T10:16:17.329Z,1010.75
2019-03-19T10:17:17.369Z,1010.73
2019-03-19T10:18:17.330Z,1010.74
2019-03-19T10:19:17.296Z,1010.71
2019-03-19T10:20:18.092Z,1010.73
2019-03-19T10:21:17.273Z,1010.72
2019-03-19T10:22:17.262Z,1010.78
2019-03-19T10:23:17.281Z,1010.81
2019-03-19T10:24:17.241Z,1010.81
2019-03-19T10:25:17.228Z,1010.78
2019-03-19T10:26:17.219Z,1010.78
2019-03-19T10:27:19.561Z,1010.82
2019-03-19T10:28:17.195Z,1010.78
2019-03-19T10:29:17.204Z,1010.78
2019-03-19T10:30:17.174Z,1010.75
2019-03-19T10:31:17.272Z,1010.79
2019-03-19T10:32:17.150Z,1010.73
2019-03-19T10:33:17.138Z,1010.74
2019-03-19T10:34:17.151Z,1010.80
2019-03-19T10:35:17.136Z,1010.79
2019-03-19T10:36:17.106Z,1010.75
2019-03-19T10:37:17.142Z,1010.79
2019-03-19T10:38:17.127Z,1010.76
2019-03-19T10:39:17.092Z,1010.76
2019-03-19T10:40:17.063Z,1010.78
2019-03-19T10:41:17.049Z,1010.76
2019-03-19T10:42:17.038Z,1010.75
2019-03-19T10:43:17.030Z,1010.78
2019-03-19T10:44:17.038Z,1010.84
2019-03-19T10:45:17.007Z,1010.81
2019-03-19T10:46:17.203Z,1010.82
2019-03-19T10:47:16.984Z,1010.86
2019-03-19T10:48:16.971Z,1010.85
2019-03-19T10:49:16.986Z,1010.76
2019-03-19T10:50:16.950Z,1010.80
2019-03-19T10:51:16.938Z,1010.78
2019-03-19T10:52:16.927Z,1010.81
2019-03-19T10:53:16.916Z,1010.80
2019-03-19T10:54:16.927Z,1010.81
2019-03-19T10:55:16.893Z,1010.80
2019-03-19T10:56:16.882Z,1010.85
2019-03-19T10:57:16.872Z,1010.84
2019-03-19T10:58:16.862Z,1010.86
2019-03-19T10:59:16.870Z,1010.87
2019-03-19T11:00:16.838Z,1010.82
2019-03-19T11:01:16.827Z,1010.86
2019-03-19T11:02:16.817Z,1010.81
2019-03-19T11:03:16.804Z,1010.82
2019-03-19T11:04:16.818Z,1010.80
2019-03-19T11:05:16.784Z,1010.82
2019-03-19T11:06:16.774Z,1010.88
2019-03-19T11:07:16.766Z,1010.84
2019-03-19T11:08:16.752Z,1010.87
2019-03-19T11:09:16.758Z,1010.89
2019-03-19T11:10:16.730Z,1010.88
2019-03-19T11:11:16.715Z,1010.87
2019-03-19T11:12:16.712Z,1010.88
2019-03-19T11:13:16.692Z,1010.94
2019-03-19T11:14:16.706Z,1010.92
2019-03-19T11:15:16.668Z,1010.94
2019-03-19T11:16:16.658Z,1010.97
2019-03-19T11:17:16.649Z,1010.96
2019-03-19T11:18:16.635Z,1010.97
2019-03-19T11:19:16.652Z,1010.94
2019-03-19T11:20:16.614Z,1010.99
2019-03-19T11:21:16.603Z,1010.96
2019-03-19T11:22:16.592Z,1010.97
2019-03-19T11:23:16.578Z,1010.96
2019-03-19T11:24:16.568Z,1010.96
2019-03-19T11:25:16.577Z,1010.96
2019-03-19T11:26:16.545Z,1010.99
2019-03-19T11:27:16.532Z,1010.99
2019-03-19T11:28:16.521Z,1010.95
2019-03-19T11:29:16.511Z,1010.92
2019-03-19T11:30:16.522Z,1010.88
2019-03-19T11:31:16.488Z,1010.94
2019-03-19T11:32:16.479Z,1010.95
2019-03-19T11:33:16.479Z,1010.97
2019-03-19T11:34:16.454Z,1010.99
2019-03-19T11:35:16.466Z,1010.94
2019-03-19T11:36:16.433Z,1010.95
2019-03-19T11:37:16.423Z,1010.95
2019-03-19T11:38:16.410Z,1010.95
2019-03-19T11:39:16.399Z,1010.90
2019-03-19T11:40:16.408Z,1010.90
2019-03-19T11:41:16.377Z,1010.90
2019-03-19T11:42:16.366Z,1010.90
2019-03-19T11:43:16.358Z,1010.87
2019-03-19T11:44:16.342Z,1010.89
2019-03-19T11:45:16.355Z,1010.88
2019-03-19T11:46:16.326Z,1010.87
2019-03-19T11:47:16.309Z,1010.87
2019-03-19T11:48:16.299Z,1010.83
2019-03-19T11:49:16.287Z,1010.82
2019-03-19T11:50:16.300Z,1010.80
2019-03-19T11:51:16.266Z,1010.83
2019-03-19T11:52:16.253Z,1010.81
2019-03-19T11:53:16.243Z,1010.81
2019-03-19T11:54:16.232Z,1010.83
2019-03-19T11:55:16.243Z,1010.84
2019-03-19T11:56:16.210Z,1010.81
2019-03-19T11:57:16.198Z,1010.85
2019-03-19T11:58:16.192Z,1010.83
2019-03-19T11:59:16.195Z,1010.87
2019-03-19T12:00:16.185Z,1010.87
2019-03-19T12:01:16.158Z,1010.84
2019-03-19T12:02:25.541Z,1010.88
2019-03-19T12:03:17.132Z,1010.82
2019-03-19T12:04:16.121Z,1010.84
2019-03-19T12:05:16.130Z,1010.82